sensor_id;sensor_type;location;lat;lon;timestamp;temperature;humidity
14172;DHT22;7165;52.388;4.928;2022-11-06T00:00:22;10.90;99.90
14172;DHT22;7165;52.388;4.928;2022-11-06T00:02:49;10.90;99.90
14172;DHT22;7165;52.388;4.928;2022-11-06T00:05:16;10.90;99.90
14172;DHT22;7165;52.388;4.928;2022-11-06T00:08:01;10.90;99.90
14172;DHT22;7165;52.388;4.928;2022-11-06T00:10:29;10.90;99.90
14172;DHT22;7165;52.388;4.928;2022-11-06T00:12:56;10.90;99.90
14172;DHT22;7165;52.388;4.928;2022-11-06T00:15:22;10.90;99.90
14172;DHT22;7165;52.388;4.928;2022-11-06T00:17:49;11.00;99.90
14172;DHT22;7165;52.388;4.928;2022-11-06T00:20:16;11.00;99.90
14172;DHT22;7165;52.388;4.928;2022-11-06T00:22:43;11.00;99.90
14172;DHT22;7165;52.388;4.928;2022-11-06T00:25:11;11.00;99.90
14172;DHT22;7165;52.388;4.928;2022-11-06T00:27:39;11.00;99.90
14172;DHT22;7165;52.388;4.928;2022-11-06T00:30:08;11.00;99.90
14172;DHT22;7165;52.388;4.928;2022-11-06T00:32:35;11.00;99.90
14172;DHT22;7165;52.388;4.928;2022-11-06T00:35:03;11.00;99.90
14172;DHT22;7165;52.388;4.928;2022-11-06T00:37:29;11.00;99.90
14172;DHT22;7165;52.388;4.928;2022-11-06T00:39:56;10.90;99.90
14172;DHT22;7165;52.388;4.928;2022-11-06T00:42:25;10.90;99.90
14172;DHT22;7165;52.388;4.928;2022-11-06T00:44:51;10.90;99.90
14172;DHT22;7165;52.388;4.928;2022-11-06T00:47:18;10.80;99.90
14172;DHT22;7165;52.388;4.928;2022-11-06T00:49:45;10.80;99.90
14172;DHT22;7165;52.388;4.928;2022-11-06T00:52:12;10.80;99.90
14172;DHT22;7165;52.388;4.928;2022-11-06T00:54:38;10.80;99.90
14172;DHT22;7165;52.388;4.928;2022-11-06T00:57:05;10.80;99.90
14172;DHT22;7165;52.388;4.928;2022-11-06T00:59:33;10.80;99.90
14172;DHT22;7165;52.388;4.928;2022-11-06T01:02:00;10.80;99.90
14172;DHT22;7165;52.388;4.928;2022-11-06T01:04:27;10.80;99.90
14172;DHT22;7165;52.388;4.928;2022-11-06T01:06:54;10.80;99.90
14172;DHT22;7165;52.388;4.928;2022-11-06T01:09:23;10.80;99.90
14172;DHT22;7165;52.388;4.928;2022-11-06T01:11:52;10.80;99.90
14172;DHT22;7165;52.388;4.928;2022-11-06T01:14:20;10.90;99.90
14172;DHT22;7165;52.388;4.928;2022-11-06T01:16:48;10.90;99.90
14172;DHT22;7165;52.388;4.928;2022-11-06T01:19:17;10.90;99.90
14172;DHT22;7165;52.388;4.928;2022-11-06T01:21:46;10.90;99.90
14172;DHT22;7165;52.388;4.928;2022-11-06T01:24:16;10.90;99.90
14172;DHT22;7165;52.388;4.928;2022-11-06T01:26:43;10.90;99.90
14172;DHT22;7165;52.388;4.928;2022-11-06T01:29:12;10.90;99.90
14172;DHT22;7165;52.388;4.928;2022-11-06T01:31:39;10.90;99.90
14172;DHT22;7165;52.388;4.928;2022-11-06T01:34:09;10.90;99.90
14172;DHT22;7165;52.388;4.928;2022-11-06T01:36:36;10.80;99.90
14172;DHT22;7165;52.388;4.928;2022-11-06T01:39:05;10.80;99.90
14172;DHT22;7165;52.388;4.928;2022-11-06T01:41:35;10.80;99.90
14172;DHT22;7165;52.388;4.928;2022-11-06T01:44:04;10.80;99.90
14172;DHT22;7165;52.388;4.928;2022-11-06T01:46:32;10.80;99.90
14172;DHT22;7165;52.388;4.928;2022-11-06T01:49:01;10.80;99.90
14172;DHT22;7165;52.388;4.928;2022-11-06T01:51:33;10.80;99.90
14172;DHT22;7165;52.388;4.928;2022-11-06T01:54:02;10.80;99.90
14172;DHT22;7165;52.388;4.928;2022-11-06T01:56:30;10.80;99.90
14172;DHT22;7165;52.388;4.928;2022-11-06T01:58:56;10.80;99.90
14172;DHT22;7165;52.388;4.928;2022-11-06T02:01:23;10.80;99.90
14172;DHT22;7165;52.388;4.928;2022-11-06T02:03:54;10.80;99.90
14172;DHT22;7165;52.388;4.928;2022-11-06T02:06:22;10.80;99.90
14172;DHT22;7165;52.388;4.928;2022-11-06T02:08:50;10.80;99.90
14172;DHT22;7165;52.388;4.928;2022-11-06T02:11:17;10.80;99.90
14172;DHT22;7165;52.388;4.928;2022-11-06T02:13:53;10.80;99.90
14172;DHT22;7165;52.388;4.928;2022-11-06T02:16:27;10.80;99.90
14172;DHT22;7165;52.388;4.928;2022-11-06T02:19:15;10.80;99.90
14172;DHT22;7165;52.388;4.928;2022-11-06T02:21:59;10.80;99.90
14172;DHT22;7165;52.388;4.928;2022-11-06T02:24:46;10.80;99.90
14172;DHT22;7165;52.388;4.928;2022-11-06T02:27:17;10.80;99.90
14172;DHT22;7165;52.388;4.928;2022-11-06T02:29:48;10.70;99.90
14172;DHT22;7165;52.388;4.928;2022-11-06T02:32:20;10.80;99.90
14172;DHT22;7165;52.388;4.928;2022-11-06T02:34:50;10.80;99.90
14172;DHT22;7165;52.388;4.928;2022-11-06T02:37:23;10.80;99.90
14172;DHT22;7165;52.388;4.928;2022-11-06T02:39:52;10.80;99.90
14172;DHT22;7165;52.388;4.928;2022-11-06T02:42:23;10.80;99.90
14172;DHT22;7165;52.388;4.928;2022-11-06T02:44:53;10.80;99.90
14172;DHT22;7165;52.388;4.928;2022-11-06T02:47:24;10.80;99.90
14172;DHT22;7165;52.388;4.928;2022-11-06T02:49:54;10.80;99.90
14172;DHT22;7165;52.388;4.928;2022-11-06T02:52:24;10.80;99.90
14172;DHT22;7165;52.388;4.928;2022-11-06T02:54:55;10.80;99.90
14172;DHT22;7165;52.388;4.928;2022-11-06T02:57:26;10.80;99.90
14172;DHT22;7165;52.388;4.928;2022-11-06T03:00:00;10.80;99.90
14172;DHT22;7165;52.388;4.928;2022-11-06T03:02:32;10.80;99.90
14172;DHT22;7165;52.388;4.928;2022-11-06T03:05:05;10.80;99.90
14172;DHT22;7165;52.388;4.928;2022-11-06T03:07:37;10.80;99.90
14172;DHT22;7165;52.388;4.928;2022-11-06T03:10:06;10.80;99.90
14172;DHT22;7165;52.388;4.928;2022-11-06T03:12:41;10.80;99.90
14172;DHT22;7165;52.388;4.928;2022-11-06T03:15:16;10.80;99.90
14172;DHT22;7165;52.388;4.928;2022-11-06T03:17:48;10.80;99.90
14172;DHT22;7165;52.388;4.928;2022-11-06T03:20:21;10.80;99.90
14172;DHT22;7165;52.388;4.928;2022-11-06T03:22:54;10.80;99.90
14172;DHT22;7165;52.388;4.928;2022-11-06T03:25:25;10.80;99.90
14172;DHT22;7165;52.388;4.928;2022-11-06T03:28:00;10.80;99.90
14172;DHT22;7165;52.388;4.928;2022-11-06T03:30:29;10.80;99.90
14172;DHT22;7165;52.388;4.928;2022-11-06T03:33:01;10.80;99.90
14172;DHT22;7165;52.388;4.928;2022-11-06T03:35:36;10.80;99.90
14172;DHT22;7165;52.388;4.928;2022-11-06T03:38:06;10.80;99.90
14172;DHT22;7165;52.388;4.928;2022-11-06T03:40:39;10.80;99.90
14172;DHT22;7165;52.388;4.928;2022-11-06T03:43:09;10.80;99.90
14172;DHT22;7165;52.388;4.928;2022-11-06T03:45:39;10.80;99.90
14172;DHT22;7165;52.388;4.928;2022-11-06T03:48:09;10.80;99.90
14172;DHT22;7165;52.388;4.928;2022-11-06T03:50:43;10.80;99.90
14172;DHT22;7165;52.388;4.928;2022-11-06T03:53:17;10.80;99.90
14172;DHT22;7165;52.388;4.928;2022-11-06T03:55:48;10.80;99.90
14172;DHT22;7165;52.388;4.928;2022-11-06T03:58:21;10.80;99.90
14172;DHT22;7165;52.388;4.928;2022-11-06T04:00:50;10.80;99.90
14172;DHT22;7165;52.388;4.928;2022-11-06T04:03:22;10.80;99.90
14172;DHT22;7165;52.388;4.928;2022-11-06T04:05:53;10.80;99.90
14172;DHT22;7165;52.388;4.928;2022-11-06T04:08:24;10.80;99.90
14172;DHT22;7165;52.388;4.928;2022-11-06T04:11:12;10.80;99.90
14172;DHT22;7165;52.388;4.928;2022-11-06T04:14:01;10.90;99.90
14172;DHT22;7165;52.388;4.928;2022-11-06T04:16:32;10.90;99.90
14172;DHT22;7165;52.388;4.928;2022-11-06T04:19:00;10.80;99.90
14172;DHT22;7165;52.388;4.928;2022-11-06T04:21:36;10.80;99.90
14172;DHT22;7165;52.388;4.928;2022-11-06T04:24:10;10.80;99.90
14172;DHT22;7165;52.388;4.928;2022-11-06T04:27:07;10.90;99.90
14172;DHT22;7165;52.388;4.928;2022-11-06T04:29:47;10.80;99.90
14172;DHT22;7165;52.388;4.928;2022-11-06T04:32:25;10.90;99.90
14172;DHT22;7165;52.388;4.928;2022-11-06T04:35:03;10.90;99.90
14172;DHT22;7165;52.388;4.928;2022-11-06T04:37:36;10.90;99.90
14172;DHT22;7165;52.388;4.928;2022-11-06T04:40:09;10.90;99.90
14172;DHT22;7165;52.388;4.928;2022-11-06T04:42:41;10.90;99.90
14172;DHT22;7165;52.388;4.928;2022-11-06T04:45:19;10.90;99.90
14172;DHT22;7165;52.388;4.928;2022-11-06T04:47:50;10.90;99.90
14172;DHT22;7165;52.388;4.928;2022-11-06T04:50:19;10.90;99.90
14172;DHT22;7165;52.388;4.928;2022-11-06T04:52:48;11.00;99.90
14172;DHT22;7165;52.388;4.928;2022-11-06T04:55:15;11.00;99.90
14172;DHT22;7165;52.388;4.928;2022-11-06T04:57:42;11.00;99.90
14172;DHT22;7165;52.388;4.928;2022-11-06T05:00:13;11.00;99.90
14172;DHT22;7165;52.388;4.928;2022-11-06T05:02:40;11.00;99.90
14172;DHT22;7165;52.388;4.928;2022-11-06T05:05:07;11.00;99.90
14172;DHT22;7165;52.388;4.928;2022-11-06T05:07:34;11.00;99.90
14172;DHT22;7165;52.388;4.928;2022-11-06T05:10:00;11.00;99.90
14172;DHT22;7165;52.388;4.928;2022-11-06T05:12:27;11.00;99.90
14172;DHT22;7165;52.388;4.928;2022-11-06T05:14:55;11.00;99.90
14172;DHT22;7165;52.388;4.928;2022-11-06T05:17:23;11.00;99.90
14172;DHT22;7165;52.388;4.928;2022-11-06T05:19:49;11.00;99.90
14172;DHT22;7165;52.388;4.928;2022-11-06T05:22:16;11.00;99.90
14172;DHT22;7165;52.388;4.928;2022-11-06T05:25:00;11.00;99.90
14172;DHT22;7165;52.388;4.928;2022-11-06T05:27:27;11.00;99.90
14172;DHT22;7165;52.388;4.928;2022-11-06T05:29:53;11.00;99.90
14172;DHT22;7165;52.388;4.928;2022-11-06T05:32:20;11.00;99.90
14172;DHT22;7165;52.388;4.928;2022-11-06T05:34:48;11.00;99.90
14172;DHT22;7165;52.388;4.928;2022-11-06T05:37:14;11.00;99.90
14172;DHT22;7165;52.388;4.928;2022-11-06T05:39:41;10.90;99.90
14172;DHT22;7165;52.388;4.928;2022-11-06T05:42:08;11.00;99.90
14172;DHT22;7165;52.388;4.928;2022-11-06T05:44:34;10.90;99.90
14172;DHT22;7165;52.388;4.928;2022-11-06T05:47:02;10.90;99.90
14172;DHT22;7165;52.388;4.928;2022-11-06T05:49:28;10.90;99.90
14172;DHT22;7165;52.388;4.928;2022-11-06T05:51:56;10.90;99.90
14172;DHT22;7165;52.388;4.928;2022-11-06T05:54:23;10.90;99.90
14172;DHT22;7165;52.388;4.928;2022-11-06T05:56:50;11.00;99.90
14172;DHT22;7165;52.388;4.928;2022-11-06T05:59:16;11.00;99.90
14172;DHT22;7165;52.388;4.928;2022-11-06T06:01:43;10.90;99.90
14172;DHT22;7165;52.388;4.928;2022-11-06T06:04:09;11.00;99.90
14172;DHT22;7165;52.388;4.928;2022-11-06T06:06:37;11.00;99.90
14172;DHT22;7165;52.388;4.928;2022-11-06T06:09:05;11.00;99.90
14172;DHT22;7165;52.388;4.928;2022-11-06T06:11:32;11.00;99.90
14172;DHT22;7165;52.388;4.928;2022-11-06T06:13:59;11.00;99.90
14172;DHT22;7165;52.388;4.928;2022-11-06T06:16:26;11.00;99.90
14172;DHT22;7165;52.388;4.928;2022-11-06T06:18:53;11.00;99.90
14172;DHT22;7165;52.388;4.928;2022-11-06T06:21:19;10.90;99.90
14172;DHT22;7165;52.388;4.928;2022-11-06T06:23:46;10.90;99.90
14172;DHT22;7165;52.388;4.928;2022-11-06T06:26:14;10.90;99.90
14172;DHT22;7165;52.388;4.928;2022-11-06T06:28:41;11.00;99.90
14172;DHT22;7165;52.388;4.928;2022-11-06T06:31:08;11.00;99.90
14172;DHT22;7165;52.388;4.928;2022-11-06T06:33:35;10.90;99.90
14172;DHT22;7165;52.388;4.928;2022-11-06T06:36:03;10.90;99.90
14172;DHT22;7165;52.388;4.928;2022-11-06T06:38:29;10.90;99.90
14172;DHT22;7165;52.388;4.928;2022-11-06T06:40:59;10.90;99.90
14172;DHT22;7165;52.388;4.928;2022-11-06T06:43:27;10.90;99.90
14172;DHT22;7165;52.388;4.928;2022-11-06T06:45:57;11.00;99.90
14172;DHT22;7165;52.388;4.928;2022-11-06T06:48:24;11.00;99.90
14172;DHT22;7165;52.388;4.928;2022-11-06T06:50:51;11.00;99.90
14172;DHT22;7165;52.388;4.928;2022-11-06T06:53:17;10.90;99.90
14172;DHT22;7165;52.388;4.928;2022-11-06T06:55:44;11.00;99.90
14172;DHT22;7165;52.388;4.928;2022-11-06T06:58:10;10.90;99.90
14172;DHT22;7165;52.388;4.928;2022-11-06T07:00:38;10.90;99.90
14172;DHT22;7165;52.388;4.928;2022-11-06T07:03:05;10.90;99.90
14172;DHT22;7165;52.388;4.928;2022-11-06T07:05:32;10.90;99.90
14172;DHT22;7165;52.388;4.928;2022-11-06T07:07:58;10.90;99.90
14172;DHT22;7165;52.388;4.928;2022-11-06T07:10:25;10.80;99.90
14172;DHT22;7165;52.388;4.928;2022-11-06T07:12:52;10.80;99.90
14172;DHT22;7165;52.388;4.928;2022-11-06T07:15:18;10.80;99.90
14172;DHT22;7165;52.388;4.928;2022-11-06T07:17:46;10.80;99.90
14172;DHT22;7165;52.388;4.928;2022-11-06T07:20:13;10.80;99.90
14172;DHT22;7165;52.388;4.928;2022-11-06T07:22:39;10.80;99.90
14172;DHT22;7165;52.388;4.928;2022-11-06T07:25:07;10.80;99.90
14172;DHT22;7165;52.388;4.928;2022-11-06T07:27:33;10.70;99.90
14172;DHT22;7165;52.388;4.928;2022-11-06T07:30:00;10.70;99.90
14172;DHT22;7165;52.388;4.928;2022-11-06T07:32:27;10.70;99.90
14172;DHT22;7165;52.388;4.928;2022-11-06T07:34:55;10.70;99.90
14172;DHT22;7165;52.388;4.928;2022-11-06T07:37:22;10.70;99.90
14172;DHT22;7165;52.388;4.928;2022-11-06T07:39:49;10.70;99.90
14172;DHT22;7165;52.388;4.928;2022-11-06T07:42:15;10.70;99.90
14172;DHT22;7165;52.388;4.928;2022-11-06T07:44:42;10.70;99.90
14172;DHT22;7165;52.388;4.928;2022-11-06T07:47:09;10.70;99.90
14172;DHT22;7165;52.388;4.928;2022-11-06T07:49:35;10.70;99.90
14172;DHT22;7165;52.388;4.928;2022-11-06T07:52:05;10.70;99.90
14172;DHT22;7165;52.388;4.928;2022-11-06T07:54:31;10.70;99.90
14172;DHT22;7165;52.388;4.928;2022-11-06T07:56:58;10.80;99.90
14172;DHT22;7165;52.388;4.928;2022-11-06T07:59:24;10.70;99.90
14172;DHT22;7165;52.388;4.928;2022-11-06T08:01:51;10.80;99.90
14172;DHT22;7165;52.388;4.928;2022-11-06T08:04:18;10.80;99.90
14172;DHT22;7165;52.388;4.928;2022-11-06T08:06:44;10.80;99.90
14172;DHT22;7165;52.388;4.928;2022-11-06T08:09:12;10.90;99.90
14172;DHT22;7165;52.388;4.928;2022-11-06T08:11:39;10.90;99.90
14172;DHT22;7165;52.388;4.928;2022-11-06T08:14:05;10.90;99.90
14172;DHT22;7165;52.388;4.928;2022-11-06T08:16:32;10.90;99.90
14172;DHT22;7165;52.388;4.928;2022-11-06T08:18:59;10.90;99.90
14172;DHT22;7165;52.388;4.928;2022-11-06T08:21:25;10.90;99.90
14172;DHT22;7165;52.388;4.928;2022-11-06T08:23:52;10.80;99.90
14172;DHT22;7165;52.388;4.928;2022-11-06T08:26:20;10.90;99.90
14172;DHT22;7165;52.388;4.928;2022-11-06T08:28:47;10.80;99.90
14172;DHT22;7165;52.388;4.928;2022-11-06T08:31:13;10.80;99.90
14172;DHT22;7165;52.388;4.928;2022-11-06T08:33:40;10.80;99.90
14172;DHT22;7165;52.388;4.928;2022-11-06T08:36:08;10.80;99.90
14172;DHT22;7165;52.388;4.928;2022-11-06T08:38:35;10.80;99.90
14172;DHT22;7165;52.388;4.928;2022-11-06T08:41:06;10.90;99.90
14172;DHT22;7165;52.388;4.928;2022-11-06T08:43:34;10.80;99.90
14172;DHT22;7165;52.388;4.928;2022-11-06T08:46:02;10.80;99.90
14172;DHT22;7165;52.388;4.928;2022-11-06T08:48:29;10.80;99.90
14172;DHT22;7165;52.388;4.928;2022-11-06T08:50:55;10.80;99.90
14172;DHT22;7165;52.388;4.928;2022-11-06T08:53:22;10.80;99.90
14172;DHT22;7165;52.388;4.928;2022-11-06T08:55:49;10.80;99.90
14172;DHT22;7165;52.388;4.928;2022-11-06T08:58:15;10.80;99.90
14172;DHT22;7165;52.388;4.928;2022-11-06T09:00:43;10.90;99.90
14172;DHT22;7165;52.388;4.928;2022-11-06T09:03:12;10.80;99.90
14172;DHT22;7165;52.388;4.928;2022-11-06T09:05:39;10.90;99.90
14172;DHT22;7165;52.388;4.928;2022-11-06T09:08:07;10.90;99.90
14172;DHT22;7165;52.388;4.928;2022-11-06T09:10:35;11.00;99.90
14172;DHT22;7165;52.388;4.928;2022-11-06T09:13:02;11.00;99.90
14172;DHT22;7165;52.388;4.928;2022-11-06T09:15:29;11.00;99.90
14172;DHT22;7165;52.388;4.928;2022-11-06T09:17:57;11.00;99.90
14172;DHT22;7165;52.388;4.928;2022-11-06T09:20:24;11.00;99.90
14172;DHT22;7165;52.388;4.928;2022-11-06T09:22:51;11.10;99.90
14172;DHT22;7165;52.388;4.928;2022-11-06T09:25:19;11.10;99.90
14172;DHT22;7165;52.388;4.928;2022-11-06T09:27:47;11.10;99.90
14172;DHT22;7165;52.388;4.928;2022-11-06T09:30:16;11.10;99.90
14172;DHT22;7165;52.388;4.928;2022-11-06T09:32:48;11.20;99.90
14172;DHT22;7165;52.388;4.928;2022-11-06T09:35:17;11.20;99.90
14172;DHT22;7165;52.388;4.928;2022-11-06T09:37:43;11.20;99.90
14172;DHT22;7165;52.388;4.928;2022-11-06T09:40:18;11.30;99.90
14172;DHT22;7165;52.388;4.928;2022-11-06T09:42:50;11.30;99.90
14172;DHT22;7165;52.388;4.928;2022-11-06T09:45:21;11.30;99.90
14172;DHT22;7165;52.388;4.928;2022-11-06T09:47:51;11.40;99.90
14172;DHT22;7165;52.388;4.928;2022-11-06T09:50:24;11.40;99.90
14172;DHT22;7165;52.388;4.928;2022-11-06T09:52:55;11.40;99.90
14172;DHT22;7165;52.388;4.928;2022-11-06T09:55:28;11.40;99.90
14172;DHT22;7165;52.388;4.928;2022-11-06T09:57:58;11.40;99.90
14172;DHT22;7165;52.388;4.928;2022-11-06T10:00:26;11.50;99.90
14172;DHT22;7165;52.388;4.928;2022-11-06T10:02:55;11.50;99.90
14172;DHT22;7165;52.388;4.928;2022-11-06T10:05:26;11.60;99.90
14172;DHT22;7165;52.388;4.928;2022-11-06T10:07:55;11.60;99.90
14172;DHT22;7165;52.388;4.928;2022-11-06T10:10:28;11.70;99.90
14172;DHT22;7165;52.388;4.928;2022-11-06T10:13:03;11.80;99.90
14172;DHT22;7165;52.388;4.928;2022-11-06T10:15:34;11.80;99.90
14172;DHT22;7165;52.388;4.928;2022-11-06T10:18:08;11.90;99.90
14172;DHT22;7165;52.388;4.928;2022-11-06T10:20:44;11.90;99.90
14172;DHT22;7165;52.388;4.928;2022-11-06T10:23:18;12.00;99.90
14172;DHT22;7165;52.388;4.928;2022-11-06T10:25:52;12.00;99.90
14172;DHT22;7165;52.388;4.928;2022-11-06T10:28:32;12.10;99.90
14172;DHT22;7165;52.388;4.928;2022-11-06T10:31:05;12.10;99.90
14172;DHT22;7165;52.388;4.928;2022-11-06T10:33:41;12.20;99.90
14172;DHT22;7165;52.388;4.928;2022-11-06T10:36:14;12.20;99.90
14172;DHT22;7165;52.388;4.928;2022-11-06T10:38:44;12.20;99.90
14172;DHT22;7165;52.388;4.928;2022-11-06T10:41:17;12.20;99.90
14172;DHT22;7165;52.388;4.928;2022-11-06T10:43:49;12.30;99.90
14172;DHT22;7165;52.388;4.928;2022-11-06T10:46:23;12.30;99.90
14172;DHT22;7165;52.388;4.928;2022-11-06T10:48:55;12.30;99.90
14172;DHT22;7165;52.388;4.928;2022-11-06T10:51:36;12.40;99.90
14172;DHT22;7165;52.388;4.928;2022-11-06T10:54:18;12.50;99.90
14172;DHT22;7165;52.388;4.928;2022-11-06T10:56:56;12.60;99.90
14172;DHT22;7165;52.388;4.928;2022-11-06T10:59:28;12.70;99.90
14172;DHT22;7165;52.388;4.928;2022-11-06T11:01:55;12.70;99.90
14172;DHT22;7165;52.388;4.928;2022-11-06T11:04:22;12.70;99.90
14172;DHT22;7165;52.388;4.928;2022-11-06T11:06:50;12.80;99.90
14172;DHT22;7165;52.388;4.928;2022-11-06T11:09:28;12.80;99.90
14172;DHT22;7165;52.388;4.928;2022-11-06T11:11:55;12.70;99.90
14172;DHT22;7165;52.388;4.928;2022-11-06T11:14:23;12.70;99.90
14172;DHT22;7165;52.388;4.928;2022-11-06T11:16:50;12.70;99.90
14172;DHT22;7165;52.388;4.928;2022-11-06T11:19:26;12.70;99.90
14172;DHT22;7165;52.388;4.928;2022-11-06T11:22:01;12.70;99.90
14172;DHT22;7165;52.388;4.928;2022-11-06T11:24:28;12.70;99.90
14172;DHT22;7165;52.388;4.928;2022-11-06T11:26:58;12.70;99.90
14172;DHT22;7165;52.388;4.928;2022-11-06T11:29:28;12.70;99.90
14172;DHT22;7165;52.388;4.928;2022-11-06T11:31:58;12.60;99.90
14172;DHT22;7165;52.388;4.928;2022-11-06T11:34:28;12.60;99.90
14172;DHT22;7165;52.388;4.928;2022-11-06T11:36:58;12.60;99.90
14172;DHT22;7165;52.388;4.928;2022-11-06T11:39:29;12.60;99.90
14172;DHT22;7165;52.388;4.928;2022-11-06T11:42:16;12.60;99.90
14172;DHT22;7165;52.388;4.928;2022-11-06T11:44:43;12.60;99.90
14172;DHT22;7165;52.388;4.928;2022-11-06T11:47:19;12.60;99.90
14172;DHT22;7165;52.388;4.928;2022-11-06T11:49:46;12.50;99.90
14172;DHT22;7165;52.388;4.928;2022-11-06T11:52:17;12.50;99.90
14172;DHT22;7165;52.388;4.928;2022-11-06T11:54:49;12.60;99.90
14172;DHT22;7165;52.388;4.928;2022-11-06T11:57:18;12.50;99.90
14172;DHT22;7165;52.388;4.928;2022-11-06T11:59:47;12.50;99.90
14172;DHT22;7165;52.388;4.928;2022-11-06T12:02:17;12.40;99.90
14172;DHT22;7165;52.388;4.928;2022-11-06T12:04:48;12.40;99.90
14172;DHT22;7165;52.388;4.928;2022-11-06T12:07:23;12.40;99.90
14172;DHT22;7165;52.388;4.928;2022-11-06T12:09:52;12.30;99.90
14172;DHT22;7165;52.388;4.928;2022-11-06T12:12:21;12.30;99.90
14172;DHT22;7165;52.388;4.928;2022-11-06T12:15:03;12.30;99.90
14172;DHT22;7165;52.388;4.928;2022-11-06T12:17:32;12.20;99.90
14172;DHT22;7165;52.388;4.928;2022-11-06T12:20:00;12.20;99.90
14172;DHT22;7165;52.388;4.928;2022-11-06T12:22:32;12.20;99.90
14172;DHT22;7165;52.388;4.928;2022-11-06T12:25:04;12.20;99.90
14172;DHT22;7165;52.388;4.928;2022-11-06T12:27:37;12.20;99.90
14172;DHT22;7165;52.388;4.928;2022-11-06T12:30:09;12.20;99.90
14172;DHT22;7165;52.388;4.928;2022-11-06T12:32:52;12.10;99.90
14172;DHT22;7165;52.388;4.928;2022-11-06T12:35:23;12.10;99.90
14172;DHT22;7165;52.388;4.928;2022-11-06T12:37:57;12.10;99.90
14172;DHT22;7165;52.388;4.928;2022-11-06T12:40:30;12.10;99.90
14172;DHT22;7165;52.388;4.928;2022-11-06T12:43:12;12.10;99.90
14172;DHT22;7165;52.388;4.928;2022-11-06T12:45:50;12.10;99.90
14172;DHT22;7165;52.388;4.928;2022-11-06T12:48:30;12.10;99.90
14172;DHT22;7165;52.388;4.928;2022-11-06T12:51:06;12.10;99.90
14172;DHT22;7165;52.388;4.928;2022-11-06T12:53:46;12.10;99.90
14172;DHT22;7165;52.388;4.928;2022-11-06T12:56:21;12.10;99.90
14172;DHT22;7165;52.388;4.928;2022-11-06T12:58:58;12.10;99.90
14172;DHT22;7165;52.388;4.928;2022-11-06T13:01:35;12.00;99.90
14172;DHT22;7165;52.388;4.928;2022-11-06T13:04:14;12.10;99.90
14172;DHT22;7165;52.388;4.928;2022-11-06T13:07:05;12.00;99.90
14172;DHT22;7165;52.388;4.928;2022-11-06T13:09:40;12.00;99.90
14172;DHT22;7165;52.388;4.928;2022-11-06T13:12:17;12.00;99.90
14172;DHT22;7165;52.388;4.928;2022-11-06T13:15:00;12.00;99.90
14172;DHT22;7165;52.388;4.928;2022-11-06T13:17:31;12.00;99.90
14172;DHT22;7165;52.388;4.928;2022-11-06T13:20:03;12.00;99.90
14172;DHT22;7165;52.388;4.928;2022-11-06T13:22:36;11.90;99.90
14172;DHT22;7165;52.388;4.928;2022-11-06T13:25:11;11.90;99.90
14172;DHT22;7165;52.388;4.928;2022-11-06T13:27:46;11.90;99.90
14172;DHT22;7165;52.388;4.928;2022-11-06T13:30:16;11.90;99.90
14172;DHT22;7165;52.388;4.928;2022-11-06T13:32:46;11.80;99.90
14172;DHT22;7165;52.388;4.928;2022-11-06T13:35:18;11.80;99.90
14172;DHT22;7165;52.388;4.928;2022-11-06T13:37:48;11.80;99.90
14172;DHT22;7165;52.388;4.928;2022-11-06T13:40:21;11.80;99.90
14172;DHT22;7165;52.388;4.928;2022-11-06T13:42:54;11.70;99.90
14172;DHT22;7165;52.388;4.928;2022-11-06T13:45:23;11.70;99.90
14172;DHT22;7165;52.388;4.928;2022-11-06T13:47:58;11.60;99.90
14172;DHT22;7165;52.388;4.928;2022-11-06T13:50:30;11.60;99.90
14172;DHT22;7165;52.388;4.928;2022-11-06T13:53:00;11.60;99.90
14172;DHT22;7165;52.388;4.928;2022-11-06T13:55:39;11.60;99.90
14172;DHT22;7165;52.388;4.928;2022-11-06T13:58:29;11.60;99.90
14172;DHT22;7165;52.388;4.928;2022-11-06T14:01:06;11.60;99.90
14172;DHT22;7165;52.388;4.928;2022-11-06T14:06:32;11.50;99.90
14172;DHT22;7165;52.388;4.928;2022-11-06T14:09:04;11.50;99.90
14172;DHT22;7165;52.388;4.928;2022-11-06T14:11:34;11.40;99.90
14172;DHT22;7165;52.388;4.928;2022-11-06T14:14:04;11.40;99.90
14172;DHT22;7165;52.388;4.928;2022-11-06T14:16:32;11.40;99.90
14172;DHT22;7165;52.388;4.928;2022-11-06T14:19:03;11.40;99.90
14172;DHT22;7165;52.388;4.928;2022-11-06T14:21:49;11.40;99.90
14172;DHT22;7165;52.388;4.928;2022-11-06T14:24:37;11.40;99.90
14172;DHT22;7165;52.388;4.928;2022-11-06T14:27:08;11.30;99.90
14172;DHT22;7165;52.388;4.928;2022-11-06T14:32:43;11.20;99.90
14172;DHT22;7165;52.388;4.928;2022-11-06T14:38:34;11.10;99.90
14172;DHT22;7165;52.388;4.928;2022-11-06T14:41:01;11.10;99.90
14172;DHT22;7165;52.388;4.928;2022-11-06T14:43:49;11.00;99.90
14172;DHT22;7165;52.388;4.928;2022-11-06T14:46:21;11.00;99.90
14172;DHT22;7165;52.388;4.928;2022-11-06T14:48:51;11.00;99.90
14172;DHT22;7165;52.388;4.928;2022-11-06T14:51:25;10.90;99.90
14172;DHT22;7165;52.388;4.928;2022-11-06T14:53:55;10.90;99.90
14172;DHT22;7165;52.388;4.928;2022-11-06T14:56:25;10.90;99.90
14172;DHT22;7165;52.388;4.928;2022-11-06T14:58:54;10.90;99.90
14172;DHT22;7165;52.388;4.928;2022-11-06T15:01:26;10.90;99.90
14172;DHT22;7165;52.388;4.928;2022-11-06T15:03:55;10.80;99.90
14172;DHT22;7165;52.388;4.928;2022-11-06T15:06:38;10.80;99.90
14172;DHT22;7165;52.388;4.928;2022-11-06T15:09:11;10.80;99.90
14172;DHT22;7165;52.388;4.928;2022-11-06T15:11:49;10.80;99.90
14172;DHT22;7165;52.388;4.928;2022-11-06T15:14:55;10.70;99.90
14172;DHT22;7165;52.388;4.928;2022-11-06T15:17:25;10.70;99.90
14172;DHT22;7165;52.388;4.928;2022-11-06T15:20:06;10.60;99.90
14172;DHT22;7165;52.388;4.928;2022-11-06T15:22:37;10.60;99.90
14172;DHT22;7165;52.388;4.928;2022-11-06T15:25:18;10.60;99.90
14172;DHT22;7165;52.388;4.928;2022-11-06T15:27:51;10.60;99.90
14172;DHT22;7165;52.388;4.928;2022-11-06T15:30:19;10.50;99.90
14172;DHT22;7165;52.388;4.928;2022-11-06T15:32:48;10.50;99.90
14172;DHT22;7165;52.388;4.928;2022-11-06T15:35:19;10.50;99.90
14172;DHT22;7165;52.388;4.928;2022-11-06T15:37:50;10.50;99.90
14172;DHT22;7165;52.388;4.928;2022-11-06T15:40:26;10.40;99.90
14172;DHT22;7165;52.388;4.928;2022-11-06T15:42:55;10.40;99.90
14172;DHT22;7165;52.388;4.928;2022-11-06T15:45:24;10.40;99.90
14172;DHT22;7165;52.388;4.928;2022-11-06T15:47:54;10.30;99.90
14172;DHT22;7165;52.388;4.928;2022-11-06T15:50:23;10.30;99.90
14172;DHT22;7165;52.388;4.928;2022-11-06T15:52:50;10.20;99.90
14172;DHT22;7165;52.388;4.928;2022-11-06T15:55:26;10.20;99.90
14172;DHT22;7165;52.388;4.928;2022-11-06T15:57:53;10.20;99.90
14172;DHT22;7165;52.388;4.928;2022-11-06T16:00:22;10.20;99.90
14172;DHT22;7165;52.388;4.928;2022-11-06T16:02:58;10.10;99.90
14172;DHT22;7165;52.388;4.928;2022-11-06T16:05:26;10.10;99.90
14172;DHT22;7165;52.388;4.928;2022-11-06T16:07:56;10.10;99.90
14172;DHT22;7165;52.388;4.928;2022-11-06T16:10:23;10.00;99.90
14172;DHT22;7165;52.388;4.928;2022-11-06T16:12:51;10.00;99.90
14172;DHT22;7165;52.388;4.928;2022-11-06T16:15:44;10.00;99.90